Forestville, Pennsylvania
Current Conditions -  °F | °C
As of 9:55 AM on Sunday 23 Nov 2014 (Local Time) from KFKL Reporting Station
Overcast Overcast  
Wind Chill: 38°   Ceiling: 6000
Heat Index: 43°   Visibility: 10mi
Dew Point: 36°   Wind: 8mph
Humidity: 76%   Direction: 190°S
Pressure: 30.1"   Gusts: NA
Location:  41.1°N, 80°W
Report Text: KFKL 231455Z AUTO 19007KT 10SM OVC060 06/02 A3010 RMK AO1 60001 52003
Loading
Personal Weather Stations






























Interactive Weather Map New forecast layout! Learn more

10-Day Weather Forecast

Advertisements
Track Severe Weather on mobile